createdAt,value
2023-01-31T00:02:35.102Z,7.10
2023-01-31T00:07:36.698Z,7.04
2023-01-31T00:12:38.429Z,7.12
2023-01-31T00:17:40.246Z,7.10
2023-01-31T00:22:41.951Z,7.05
2023-01-31T00:27:43.548Z,7.04
2023-01-31T00:32:46.410Z,7.03
2023-01-31T00:37:48.143Z,7.11
2023-01-31T00:42:49.874Z,7.08
2023-01-31T00:47:51.470Z,6.93
2023-01-31T00:52:53.013Z,6.95
2023-01-31T00:57:54.576Z,6.90
2023-01-31T01:02:56.320Z,6.92
2023-01-31T01:07:58.066Z,6.88
2023-01-31T01:12:59.666Z,6.76
2023-01-31T01:18:01.243Z,6.72
2023-01-31T01:23:03.272Z,6.60
2023-01-31T01:28:05.744Z,6.50
2023-01-31T01:33:07.327Z,6.62
2023-01-31T01:38:08.915Z,6.58
2023-01-31T01:43:11.579Z,6.61
2023-01-31T01:48:17.560Z,6.61
2023-01-31T01:53:22.656Z,6.58
2023-01-31T01:58:32.894Z,6.45
2023-01-31T02:03:35.682Z,6.55
2023-01-31T02:08:42.134Z,6.49
2023-01-31T02:13:47.458Z,6.47
2023-01-31T02:18:49.498Z,6.48
2023-01-31T02:24:37.733Z,6.54
2023-01-31T02:29:51.508Z,6.51
2023-01-31T02:34:56.055Z,6.47
2023-01-31T02:40:22.873Z,6.34
2023-01-31T02:45:46.035Z,6.24
2023-01-31T02:51:17.265Z,6.21
2023-01-31T02:56:30.628Z,6.09
2023-01-31T03:01:43.631Z,6.01
2023-01-31T03:07:08.638Z,6.00
2023-01-31T03:12:33.845Z,5.88
2023-01-31T03:17:47.683Z,5.81
2023-01-31T03:22:59.301Z,5.79
2023-01-31T03:28:05.909Z,5.94
2023-01-31T03:33:34.061Z,5.92
2023-01-31T03:38:43.077Z,5.76
2023-01-31T03:44:08.511Z,5.35
2023-01-31T03:49:14.040Z,5.07
2023-01-31T03:54:22.813Z,4.91
2023-01-31T03:59:32.534Z,4.97
2023-01-31T04:04:42.600Z,4.90
2023-01-31T04:09:45.029Z,4.85
2023-01-31T04:14:46.887Z,4.64
2023-01-31T04:19:48.444Z,4.44
2023-01-31T04:24:50.176Z,4.02
2023-01-31T04:29:51.721Z,3.75
2023-01-31T04:34:53.370Z,3.52
2023-01-31T04:39:54.971Z,3.33
2023-01-31T04:44:56.493Z,3.25
2023-01-31T04:49:58.039Z,3.28
2023-01-31T04:54:59.631Z,3.24
2023-01-31T05:00:01.273Z,3.31
2023-01-31T05:05:04.629Z,3.24
2023-01-31T05:10:07.628Z,3.28
2023-01-31T05:15:09.900Z,3.38
2023-01-31T05:20:11.924Z,3.35
2023-01-31T05:25:16.006Z,3.30
2023-01-31T05:30:17.908Z,3.17
2023-01-31T05:35:19.937Z,3.32
2023-01-31T05:40:22.668Z,3.54
2023-01-31T05:45:24.364Z,3.84
2023-01-31T05:50:26.930Z,4.06
2023-01-31T05:55:28.959Z,4.20
2023-01-31T06:00:31.176Z,4.22
2023-01-31T06:05:33.243Z,4.20
2023-01-31T06:10:35.223Z,4.10
2023-01-31T06:15:36.974Z,4.08
2023-01-31T06:20:38.923Z,4.30
2023-01-31T06:25:40.627Z,4.43
2023-01-31T06:30:42.248Z,4.34
2023-01-31T06:35:43.984Z,4.43
2023-01-31T06:40:45.762Z,4.37
2023-01-31T06:45:47.704Z,4.44
2023-01-31T06:50:49.322Z,4.58
2023-01-31T06:55:50.899Z,4.74
2023-01-31T07:00:52.643Z,4.89
2023-01-31T07:05:54.336Z,4.98
2023-01-31T07:10:56.013Z,5.15
2023-01-31T07:15:57.946Z,5.26
2023-01-31T07:20:59.665Z,5.27
2023-01-31T07:26:04.316Z,5.22
2023-01-31T07:31:07.696Z,5.31
2023-01-31T07:36:13.695Z,5.45
2023-01-31T07:41:15.661Z,5.50
2023-01-31T07:46:17.941Z,5.52
2023-01-31T07:51:19.647Z,5.49
2023-01-31T07:56:22.581Z,5.61
2023-01-31T08:01:26.417Z,5.64
2023-01-31T08:06:30.647Z,5.69
2023-01-31T08:11:32.942Z,5.77
2023-01-31T08:16:34.653Z,5.84
2023-01-31T08:21:36.315Z,6.14
2023-01-31T08:26:38.058Z,6.27
2023-01-31T08:31:41.054Z,6.45
2023-01-31T08:36:43.592Z,6.46
2023-01-31T08:41:45.328Z,6.68
2023-01-31T08:46:47.062Z,7.12
2023-01-31T08:51:48.743Z,7.27
2023-01-31T08:56:50.478Z,7.38
2023-01-31T09:01:52.152Z,7.42
2023-01-31T09:06:53.801Z,7.30
2023-01-31T09:11:55.365Z,7.35
2023-01-31T09:16:57.195Z,7.41
2023-01-31T09:21:59.104Z,7.38
2023-01-31T09:27:00.712Z,7.38
2023-01-31T09:32:02.332Z,7.24
2023-01-31T09:37:04.067Z,7.40
2023-01-31T09:42:18.424Z,7.37
2023-01-31T09:47:26.431Z,7.47
2023-01-31T09:52:28.555Z,7.53
2023-01-31T09:57:38.884Z,7.68
2023-01-31T10:03:07.449Z,7.89
2023-01-31T10:08:15.083Z,8.03
2023-01-31T10:13:23.700Z,8.22
2023-01-31T10:18:30.937Z,7.98
2023-01-31T10:23:45.188Z,8.05
2023-01-31T10:29:00.202Z,8.16
2023-01-31T10:34:26.618Z,8.58
2023-01-31T10:39:33.935Z,8.53
2023-01-31T10:44:49.908Z,8.74
2023-01-31T10:49:51.606Z,8.69
2023-01-31T10:55:01.569Z,8.56
2023-01-31T11:00:04.714Z,8.38
2023-01-31T11:05:06.879Z,8.24
2023-01-31T11:10:30.068Z,8.24
2023-01-31T11:15:40.782Z,8.52
2023-01-31T11:20:47.640Z,8.55
2023-01-31T11:25:53.962Z,8.38
2023-01-31T11:30:55.992Z,8.36
2023-01-31T11:35:57.565Z,8.36
2023-01-31T11:40:59.328Z,8.57
2023-01-31T11:46:03.256Z,8.72
2023-01-31T11:51:05.386Z,8.79
2023-01-31T11:56:26.842Z,8.93
2023-01-31T12:01:28.969Z,9.03
2023-01-31T12:06:39.212Z,9.12
2023-01-31T12:11:50.966Z,9.19
2023-01-31T12:16:56.736Z,9.29
2023-01-31T12:22:13.691Z,9.22
2023-01-31T12:27:34.032Z,9.37
2023-01-31T12:33:03.896Z,9.56
2023-01-31T12:38:27.335Z,9.59
2023-01-31T12:43:50.837Z,9.35
2023-01-31T12:48:55.786Z,9.39
2023-01-31T12:54:35.723Z,9.43
2023-01-31T13:00:23.538Z,9.52
2023-01-31T13:05:32.370Z,9.46
2023-01-31T13:10:39.584Z,9.54
2023-01-31T13:15:49.467Z,9.56
2023-01-31T13:21:00.945Z,9.41
2023-01-31T13:26:10.020Z,9.58
2023-01-31T13:31:26.244Z,9.49
2023-01-31T13:36:43.234Z,9.16
2023-01-31T13:41:45.095Z,9.37
2023-01-31T13:47:15.269Z,9.20
2023-01-31T13:52:43.587Z,9.17
2023-01-31T13:58:16.345Z,9.09
2023-01-31T14:03:20.580Z,9.07
2023-01-31T14:08:46.253Z,8.61
2023-01-31T14:13:49.437Z,8.42
2023-01-31T14:18:51.025Z,8.49
2023-01-31T14:23:52.767Z,8.29
2023-01-31T14:28:54.501Z,8.31
2023-01-31T14:33:57.005Z,8.38
2023-01-31T14:39:20.751Z,8.48
2023-01-31T14:44:40.497Z,8.30
2023-01-31T14:50:00.928Z,8.11
2023-01-31T14:55:22.160Z,8.16
2023-01-31T15:00:31.801Z,8.27
2023-01-31T15:05:36.296Z,8.23
2023-01-31T15:11:11.454Z,8.30
2023-01-31T15:16:36.384Z,8.25
2023-01-31T15:21:45.556Z,8.00
2023-01-31T15:26:49.493Z,7.97
2023-01-31T15:32:00.728Z,8.13
2023-01-31T15:37:05.769Z,8.06
2023-01-31T15:42:43.033Z,8.18
2023-01-31T15:48:11.520Z,8.16
2023-01-31T15:53:17.901Z,8.03
2023-01-31T15:58:25.444Z,7.86
2023-01-31T16:03:33.237Z,7.81
2023-01-31T16:08:37.429Z,7.79
2023-01-31T16:13:41.405Z,7.86
2023-01-31T16:18:55.226Z,7.77
2023-01-31T16:24:18.044Z,7.84
2023-01-31T16:29:22.299Z,7.75
2023-01-31T16:34:26.485Z,7.90
2023-01-31T16:39:40.715Z,7.90
2023-01-31T16:44:45.823Z,7.99
2023-01-31T16:49:47.605Z,7.92
2023-01-31T16:54:51.654Z,7.95
2023-01-31T16:59:54.125Z,8.13
2023-01-31T17:04:59.489Z,8.05
2023-01-31T17:10:05.626Z,8.20
2023-01-31T17:15:15.531Z,8.36
2023-01-31T17:20:19.452Z,8.35
2023-01-31T17:25:23.843Z,8.43
2023-01-31T17:30:25.497Z,8.41
2023-01-31T17:35:31.949Z,8.56
2023-01-31T17:40:35.168Z,8.52
2023-01-31T17:45:36.853Z,8.54
2023-01-31T17:50:38.511Z,8.47
2023-01-31T17:55:40.838Z,8.53
2023-01-31T18:00:42.540Z,8.56
2023-01-31T18:05:45.171Z,8.63
2023-01-31T18:10:47.067Z,8.65
2023-01-31T18:15:48.777Z,8.62
2023-01-31T18:20:50.646Z,8.70
2023-01-31T18:25:52.469Z,8.63
2023-01-31T18:30:54.174Z,8.65
2023-01-31T18:35:57.901Z,8.64
2023-01-31T18:40:59.643Z,8.54
2023-01-31T18:46:06.053Z,8.68
2023-01-31T18:51:11.301Z,8.63
2023-01-31T18:56:18.612Z,8.58
2023-01-31T19:01:25.844Z,8.58
2023-01-31T19:06:29.908Z,8.61
2023-01-31T19:11:31.890Z,8.61
2023-01-31T19:16:38.850Z,8.73
2023-01-31T19:21:41.515Z,8.54
2023-01-31T19:26:43.358Z,8.30
2023-01-31T19:31:45.138Z,8.01
2023-01-31T19:36:46.948Z,7.87
2023-01-31T19:41:51.487Z,7.85
2023-01-31T19:46:53.149Z,7.84
2023-01-31T19:51:54.815Z,7.69
2023-01-31T19:56:56.374Z,7.56
2023-01-31T20:01:58.387Z,7.47
2023-01-31T20:07:00.101Z,7.46
2023-01-31T20:12:01.839Z,7.41
2023-01-31T20:17:03.552Z,7.40
2023-01-31T20:22:05.405Z,7.50
2023-01-31T20:27:07.094Z,7.76
2023-01-31T20:32:08.823Z,7.97
2023-01-31T20:37:11.357Z,8.06
2023-01-31T20:42:13.142Z,8.20
2023-01-31T20:47:14.908Z,8.15
2023-01-31T20:52:16.746Z,8.14
2023-01-31T20:57:19.413Z,8.06
2023-01-31T21:02:20.984Z,7.97
2023-01-31T21:07:22.577Z,7.86
2023-01-31T21:12:24.244Z,7.59
2023-01-31T21:17:39.287Z,7.45
2023-01-31T21:22:42.072Z,7.32
2023-01-31T21:27:43.689Z,7.37
2023-01-31T21:32:45.456Z,7.44
2023-01-31T21:37:50.094Z,7.44
2023-01-31T21:42:53.526Z,7.64
2023-01-31T21:47:55.662Z,7.77
2023-01-31T21:52:57.327Z,7.93
2023-01-31T21:57:59.059Z,7.72
2023-01-31T22:03:00.757Z,7.77
2023-01-31T22:08:02.435Z,7.90
2023-01-31T22:13:04.003Z,8.14
2023-01-31T22:18:05.645Z,8.15
2023-01-31T22:23:07.402Z,8.03
2023-01-31T22:28:09.102Z,8.08
2023-01-31T22:33:10.770Z,8.12
2023-01-31T22:38:12.364Z,8.11
2023-01-31T22:43:17.773Z,8.23
2023-01-31T22:48:20.516Z,8.44
2023-01-31T22:53:23.472Z,8.40
2023-01-31T22:58:25.148Z,8.51
2023-01-31T23:03:26.937Z,8.53
2023-01-31T23:08:28.586Z,8.54
2023-01-31T23:13:30.204Z,8.56
2023-01-31T23:18:32.395Z,8.64
2023-01-31T23:23:34.156Z,8.57
2023-01-31T23:28:35.874Z,8.58
2023-01-31T23:33:37.767Z,8.68
2023-01-31T23:38:39.438Z,8.66
2023-01-31T23:43:41.162Z,8.74
2023-01-31T23:48:42.788Z,8.78
2023-01-31T23:53:44.694Z,8.71
2023-01-31T23:58:46.305Z,8.75
